createdAt,value
2023-04-12T00:00:59.757Z,14.75
2023-04-12T00:03:28.453Z,14.77
2023-04-12T00:05:57.317Z,14.75
2023-04-12T00:08:33.049Z,14.40
2023-04-12T00:11:02.793Z,15.05
2023-04-12T00:13:31.467Z,14.40
2023-04-12T00:16:00.201Z,14.85
2023-04-12T00:18:28.457Z,14.32
2023-04-12T00:20:56.644Z,13.90
2023-04-12T00:23:24.904Z,14.20
2023-04-12T00:25:53.229Z,13.40
2023-04-12T00:28:21.488Z,14.48
2023-04-12T00:30:51.539Z,14.48
2023-04-12T00:33:19.829Z,13.32
2023-04-12T00:35:48.099Z,13.85
2023-04-12T00:38:17.366Z,15.07
2023-04-12T00:40:45.602Z,14.27
2023-04-12T00:43:18.453Z,13.82
2023-04-12T00:45:47.980Z,13.27
2023-04-12T00:48:16.632Z,14.88
2023-04-12T00:50:45.137Z,15.15
2023-04-12T00:53:15.785Z,13.98
2023-04-12T00:55:46.144Z,14.73
2023-04-12T00:58:16.029Z,14.40
2023-04-12T01:00:50.306Z,14.90
2023-04-12T01:03:27.821Z,15.20
2023-04-12T01:06:27.134Z,16.50
2023-04-12T01:09:20.552Z,14.05
2023-04-12T01:11:56.869Z,13.88
2023-04-12T01:14:37.584Z,16.50
2023-04-12T01:17:10.315Z,14.60
2023-04-12T01:20:01.012Z,16.20
2023-04-12T01:22:48.747Z,14.50
2023-04-12T01:25:39.512Z,15.52
2023-04-12T01:28:14.883Z,14.75
2023-04-12T01:30:44.420Z,16.08
2023-04-12T01:33:14.087Z,15.23
2023-04-12T01:35:44.610Z,15.00
2023-04-12T01:38:13.019Z,15.05
2023-04-12T01:40:42.736Z,15.93
2023-04-12T01:43:16.210Z,15.02
2023-04-12T01:48:13.368Z,15.60
2023-04-12T01:51:02.869Z,15.30
2023-04-12T01:53:37.473Z,15.90
2023-04-12T01:56:09.741Z,15.02
2023-04-12T01:58:42.448Z,15.27
2023-04-12T02:01:13.761Z,16.65
2023-04-12T02:03:42.798Z,15.63
2023-04-12T02:06:12.058Z,16.60
2023-04-12T02:08:40.294Z,15.25
2023-04-12T02:11:11.336Z,16.17
2023-04-12T02:13:39.560Z,17.83
2023-04-12T02:16:08.334Z,16.35
2023-04-12T02:18:36.701Z,15.95
2023-04-12T02:21:07.438Z,16.10
2023-04-12T02:23:36.368Z,16.10
2023-04-12T02:26:04.855Z,16.77
2023-04-12T02:28:34.818Z,16.85
2023-04-12T02:31:03.579Z,15.02
2023-04-12T02:33:34.796Z,15.73
2023-04-12T02:36:04.541Z,14.98
2023-04-12T02:38:32.726Z,15.80
2023-04-12T02:41:04.752Z,16.38
2023-04-12T02:43:34.954Z,15.80
2023-04-12T02:46:06.910Z,16.42
2023-04-12T02:48:42.403Z,16.45
2023-04-12T02:51:11.634Z,16.58
2023-04-12T02:53:42.001Z,15.52
2023-04-12T02:56:19.263Z,16.65
2023-04-12T02:58:51.370Z,15.10
2023-04-12T03:01:35.766Z,16.98
2023-04-12T03:04:18.736Z,16.60
2023-04-12T03:06:54.146Z,16.67
2023-04-12T03:09:35.200Z,16.80
2023-04-12T03:12:05.764Z,16.38
2023-04-12T03:17:09.343Z,15.30
2023-04-12T03:19:38.883Z,15.57
2023-04-12T03:22:07.317Z,16.83
2023-04-12T03:24:42.945Z,16.80
2023-04-12T03:27:13.439Z,16.55
2023-04-12T03:29:42.330Z,16.17
2023-04-12T03:32:10.944Z,16.25
2023-04-12T03:34:40.064Z,15.93
2023-04-12T03:37:14.357Z,15.02
2023-04-12T03:39:47.987Z,15.15
2023-04-12T03:42:32.338Z,16.13
2023-04-12T03:45:06.934Z,16.10
2023-04-12T03:47:35.681Z,15.82
2023-04-12T03:52:39.604Z,15.90
2023-04-12T03:55:08.999Z,16.33
2023-04-12T03:57:38.964Z,17.10
2023-04-12T04:00:11.574Z,16.60
2023-04-12T04:03:03.200Z,15.65
2023-04-12T04:05:34.469Z,16.15
2023-04-12T04:08:03.456Z,18.55
2023-04-12T04:10:40.383Z,16.55
2023-04-12T04:13:08.768Z,16.67
2023-04-12T04:15:37.148Z,16.67
2023-04-12T04:18:06.235Z,15.88
2023-04-12T04:20:35.301Z,16.17
2023-04-12T04:23:03.593Z,15.38
2023-04-12T04:25:33.616Z,16.50
2023-04-12T04:28:07.874Z,16.02
2023-04-12T04:30:38.884Z,15.60
2023-04-12T04:33:10.239Z,16.20
2023-04-12T04:35:40.918Z,15.90
2023-04-12T04:38:26.332Z,15.77
2023-04-12T04:41:03.445Z,16.65
2023-04-12T04:43:46.931Z,16.92
2023-04-12T04:46:17.386Z,17.17
2023-04-12T04:48:45.820Z,17.65
2023-04-12T04:51:15.072Z,16.38
2023-04-12T04:53:44.052Z,17.63
2023-04-12T04:56:15.000Z,17.27
2023-04-12T04:58:44.607Z,16.52
2023-04-12T05:01:13.738Z,17.23
2023-04-12T05:03:45.114Z,16.10
2023-04-12T05:06:17.370Z,18.58
2023-04-12T05:08:45.820Z,18.00
2023-04-12T05:11:16.771Z,16.08
2023-04-12T05:13:46.043Z,17.83
2023-04-12T05:16:14.509Z,17.73
2023-04-12T05:18:42.797Z,19.25
2023-04-12T05:21:11.122Z,16.95
2023-04-12T05:23:47.653Z,18.23
2023-04-12T05:26:16.133Z,17.10
2023-04-12T05:31:21.085Z,17.23
2023-04-12T05:33:49.651Z,17.17
2023-04-12T05:36:18.745Z,19.45
2023-04-12T05:38:47.364Z,19.58
2023-04-12T05:41:15.737Z,19.23
2023-04-12T05:43:44.173Z,19.15
2023-04-12T05:46:12.972Z,18.25
2023-04-12T05:48:42.010Z,18.40
2023-04-12T05:51:10.318Z,18.13
2023-04-12T05:53:38.562Z,18.00
2023-04-12T05:56:09.035Z,19.90
2023-04-12T05:58:37.482Z,19.13
2023-04-12T06:01:06.169Z,17.20
2023-04-12T06:03:34.794Z,16.15
2023-04-12T06:06:10.248Z,16.80
2023-04-12T06:08:38.837Z,17.05
2023-04-12T06:11:09.491Z,17.38
2023-04-12T06:13:38.396Z,17.65
2023-04-12T06:16:07.481Z,17.23
2023-04-12T06:18:36.083Z,18.35
2023-04-12T06:21:04.783Z,16.45
2023-04-12T06:23:33.296Z,19.60
2023-04-12T06:26:01.676Z,19.30
2023-04-12T06:28:30.496Z,19.05
2023-04-12T06:30:58.847Z,19.67
2023-04-12T06:33:33.819Z,19.63
2023-04-12T06:36:02.713Z,18.67
2023-04-12T06:38:31.082Z,19.05
2023-04-12T06:40:59.371Z,18.80
2023-04-12T06:43:27.588Z,17.25
2023-04-12T06:45:57.072Z,17.85
2023-04-12T06:48:25.300Z,19.70
2023-04-12T06:50:53.638Z,19.55
2023-04-12T06:53:21.913Z,21.15
2023-04-12T06:55:50.147Z,22.02
2023-04-12T06:58:18.547Z,19.92
2023-04-12T07:00:46.792Z,21.48
2023-04-12T07:03:15.135Z,19.45
2023-04-12T07:05:43.482Z,20.15
2023-04-12T07:08:11.805Z,19.42
2023-04-12T07:10:40.100Z,20.33
2023-04-12T07:13:08.375Z,19.75
2023-04-12T07:15:36.667Z,19.50
2023-04-12T07:18:05.173Z,21.02
2023-04-12T07:20:33.465Z,19.33
2023-04-12T07:23:01.760Z,20.25
2023-04-12T07:25:30.040Z,21.15
2023-04-12T07:27:58.240Z,20.05
2023-04-12T07:30:26.486Z,19.88
2023-04-12T07:33:02.543Z,20.65
2023-04-12T07:35:37.201Z,20.15
2023-04-12T07:38:05.572Z,21.48
2023-04-12T07:40:33.785Z,18.73
2023-04-12T07:43:02.049Z,20.88
2023-04-12T07:45:30.308Z,19.92
2023-04-12T07:47:58.581Z,20.33
2023-04-12T07:50:26.784Z,19.63
2023-04-12T07:52:58.300Z,21.13
2023-04-12T07:55:26.523Z,20.50
2023-04-12T07:57:55.152Z,20.45
2023-04-12T08:00:23.497Z,19.40
2023-04-12T08:02:51.884Z,19.38
2023-04-12T08:05:20.472Z,18.98
2023-04-12T08:07:48.834Z,19.52
2023-04-12T08:10:17.237Z,17.00
2023-04-12T08:12:45.536Z,18.70
2023-04-12T08:15:14.528Z,16.05
2023-04-12T08:17:44.005Z,11.90
2023-04-12T08:20:13.211Z,10.98
2023-04-12T08:22:45.255Z,11.32
2023-04-12T08:25:13.893Z,11.20
2023-04-12T08:27:46.458Z,10.75
2023-04-12T08:30:14.842Z,11.53
2023-04-12T08:32:43.503Z,10.63
2023-04-12T08:35:12.173Z,10.30
2023-04-12T08:37:40.386Z,10.15
2023-04-12T08:40:09.377Z,10.52
2023-04-12T08:42:38.661Z,10.30
2023-04-12T08:45:08.662Z,10.45
2023-04-12T08:47:41.114Z,9.70
2023-04-12T08:50:13.182Z,9.70
2023-04-12T08:52:42.875Z,9.77
2023-04-12T08:55:12.941Z,9.02
2023-04-12T08:57:42.428Z,9.10
2023-04-12T09:00:13.096Z,8.65
2023-04-12T09:02:46.316Z,8.95
2023-04-12T09:07:43.550Z,7.82
2023-04-12T09:10:29.596Z,8.98
2023-04-12T09:12:58.314Z,7.97
2023-04-12T09:15:26.747Z,8.32
2023-04-12T09:18:24.409Z,8.50
2023-04-12T09:21:11.923Z,8.32
2023-04-12T09:23:40.292Z,9.27
2023-04-12T09:26:09.448Z,7.68
2023-04-12T09:28:37.751Z,7.90
2023-04-12T09:31:15.432Z,9.70
2023-04-12T09:33:43.991Z,17.38
2023-04-12T09:36:17.502Z,11.25
2023-04-12T09:39:02.228Z,10.23
2023-04-12T09:41:31.949Z,10.48
2023-04-12T09:44:01.141Z,10.32
2023-04-12T09:46:29.541Z,10.52
2023-04-12T09:48:59.461Z,9.13
2023-04-12T09:51:32.818Z,8.23
2023-04-12T09:56:40.050Z,8.88
2023-04-12T09:59:08.665Z,8.07
2023-04-12T10:01:40.275Z,9.13
2023-04-12T10:04:09.426Z,8.80
2023-04-12T10:06:38.691Z,9.85
2023-04-12T10:09:09.035Z,8.93
2023-04-12T10:11:41.862Z,8.52
2023-04-12T10:14:11.972Z,9.00
2023-04-12T10:16:42.604Z,9.07
2023-04-12T10:19:12.308Z,7.82
2023-04-12T10:21:40.658Z,8.63
2023-04-12T10:24:09.752Z,7.65
2023-04-12T10:26:43.776Z,7.78
2023-04-12T10:29:34.676Z,7.97
2023-04-12T10:32:24.804Z,7.85
2023-04-12T10:35:00.813Z,7.57
2023-04-12T10:38:04.523Z,7.40
2023-04-12T10:40:33.858Z,8.45
2023-04-12T10:43:24.837Z,8.80
2023-04-12T10:45:53.106Z,8.23
2023-04-12T10:48:50.864Z,7.13
2023-04-12T10:51:25.640Z,6.60
2023-04-12T10:54:15.860Z,8.13
2023-04-12T10:56:47.518Z,7.72
2023-04-12T10:59:51.115Z,7.97
2023-04-12T11:02:19.728Z,7.95
2023-04-12T11:05:10.019Z,7.45
2023-04-12T11:07:54.744Z,8.23
2023-04-12T11:10:46.190Z,7.38
2023-04-12T11:13:20.715Z,8.10
2023-04-12T11:15:58.046Z,8.18
2023-04-12T11:18:26.933Z,8.20
2023-04-12T11:20:57.103Z,7.82
2023-04-12T11:23:25.665Z,8.10
2023-04-12T11:25:54.377Z,8.35
2023-04-12T11:28:29.015Z,8.10
2023-04-12T11:30:59.223Z,8.15
2023-04-12T11:33:40.438Z,7.13
2023-04-12T11:36:12.753Z,8.32
2023-04-12T11:38:41.696Z,9.48
2023-04-12T11:41:10.442Z,7.50
2023-04-12T11:43:39.119Z,8.30
2023-04-12T11:46:08.000Z,8.27
2023-04-12T11:48:38.826Z,8.18
2023-04-12T11:51:20.567Z,8.32
2023-04-12T11:53:53.947Z,8.18
2023-04-12T11:58:51.442Z,8.50
2023-04-12T12:01:21.131Z,8.35
2023-04-12T12:03:50.969Z,8.75
2023-04-12T12:06:20.748Z,8.10
2023-04-12T12:08:51.386Z,9.57
2023-04-12T12:11:21.889Z,8.35
2023-04-12T12:13:57.226Z,9.88
2023-04-12T12:16:30.663Z,9.18
2023-04-12T12:21:27.837Z,9.40
2023-04-12T12:23:57.582Z,9.63
2023-04-12T12:26:30.734Z,9.10
2023-04-12T12:29:02.732Z,8.60
2023-04-12T12:31:31.371Z,9.77
2023-04-12T12:34:07.448Z,8.80
2023-04-12T12:36:38.903Z,9.32
2023-04-12T12:39:10.517Z,10.00
2023-04-12T12:41:40.343Z,8.57
2023-04-12T12:44:09.061Z,9.13
2023-04-12T12:46:52.019Z,9.75
2023-04-12T12:49:22.181Z,9.60
2023-04-12T12:51:51.808Z,9.50
2023-04-12T12:54:36.187Z,9.98
2023-04-12T12:57:08.466Z,9.05
2023-04-12T12:59:36.787Z,9.95
2023-04-12T13:02:05.756Z,9.23
2023-04-12T13:04:34.255Z,10.07
2023-04-12T13:07:02.563Z,10.57
2023-04-12T13:09:32.510Z,10.70
2023-04-12T13:12:01.956Z,11.40
2023-04-12T13:14:30.581Z,10.20
2023-04-12T13:16:58.854Z,9.15
2023-04-12T13:19:27.094Z,9.82
2023-04-12T13:21:56.115Z,9.77
2023-04-12T13:24:24.391Z,10.10
2023-04-12T13:26:52.719Z,9.93
2023-04-12T13:29:21.124Z,9.52
2023-04-12T13:31:49.391Z,10.30
2023-04-12T13:34:17.933Z,11.40
2023-04-12T13:36:46.225Z,9.70
2023-04-12T13:39:14.580Z,11.15
2023-04-12T13:41:42.795Z,10.30
2023-04-12T13:44:11.481Z,10.75
2023-04-12T13:46:39.878Z,11.27
2023-04-12T13:49:08.228Z,10.95
2023-04-12T13:51:36.473Z,12.77
2023-04-12T13:54:04.842Z,12.43
2023-04-12T13:56:33.135Z,11.77
2023-04-12T13:59:02.443Z,11.63
2023-04-12T14:01:30.797Z,12.05
2023-04-12T14:04:01.726Z,11.75
2023-04-12T14:06:31.776Z,11.50
2023-04-12T14:09:00.281Z,12.10
2023-04-12T14:11:28.632Z,12.07
2023-04-12T14:13:56.827Z,11.30
2023-04-12T14:16:25.076Z,10.82
2023-04-12T14:18:53.276Z,12.18
2023-04-12T14:21:22.842Z,10.60
2023-04-12T14:23:51.050Z,12.57
2023-04-12T14:26:19.281Z,11.30
2023-04-12T14:28:50.154Z,11.52
2023-04-12T14:31:18.793Z,12.23
2023-04-12T14:33:47.634Z,10.38
2023-04-12T14:36:15.910Z,27.20
2023-04-12T14:38:44.218Z,44.72
2023-04-12T14:41:13.930Z,17.52
2023-04-12T14:43:42.250Z,10.35
2023-04-12T14:46:11.362Z,11.45
2023-04-12T14:48:41.170Z,10.10
2023-04-12T14:51:09.488Z,10.52
2023-04-12T14:53:37.749Z,11.15
2023-04-12T14:56:16.836Z,12.20
2023-04-12T14:58:45.056Z,11.40
2023-04-12T15:01:14.163Z,11.50
2023-04-12T15:03:42.551Z,12.05
2023-04-12T15:06:11.417Z,12.23
2023-04-12T15:08:42.999Z,12.57
2023-04-12T15:11:12.598Z,12.25
2023-04-12T15:13:42.070Z,11.70
2023-04-12T15:16:12.495Z,11.98
2023-04-12T15:18:41.982Z,11.65
2023-04-12T15:21:11.784Z,11.25
2023-04-12T15:23:42.699Z,12.10
2023-04-12T15:26:12.036Z,10.77
2023-04-12T15:28:40.697Z,12.02
2023-04-12T15:31:09.643Z,11.57
2023-04-12T15:33:38.085Z,11.77
2023-04-12T15:36:06.761Z,12.68
2023-04-12T15:38:44.345Z,11.38
2023-04-12T15:41:12.624Z,12.07
2023-04-12T15:43:43.164Z,12.77
2023-04-12T15:46:14.425Z,11.43
2023-04-12T15:48:42.944Z,12.05
2023-04-12T15:51:11.233Z,12.10
2023-04-12T15:53:40.623Z,11.45
2023-04-12T15:56:12.121Z,11.15
2023-04-12T15:58:40.410Z,11.15
2023-04-12T16:01:08.651Z,11.20
2023-04-12T16:03:37.258Z,12.13
2023-04-12T16:06:06.074Z,11.20
2023-04-12T16:08:34.362Z,11.82
2023-04-12T16:11:03.031Z,10.93
2023-04-12T16:13:31.249Z,11.20
2023-04-12T16:15:59.553Z,10.65
2023-04-12T16:18:30.927Z,11.40
2023-04-12T16:20:59.200Z,12.50
2023-04-12T16:23:28.189Z,12.02
2023-04-12T16:25:56.457Z,11.55
2023-04-12T16:28:24.858Z,11.60
2023-04-12T16:30:53.684Z,11.45
2023-04-12T16:33:22.002Z,11.40
2023-04-12T16:35:50.297Z,11.85
2023-04-12T16:38:18.606Z,11.40
2023-04-12T16:40:47.109Z,11.30
2023-04-12T16:43:15.397Z,10.52
2023-04-12T16:45:46.177Z,13.15
2023-04-12T16:48:14.761Z,11.35
2023-04-12T16:50:46.310Z,12.45
2023-04-12T16:53:16.405Z,11.50
2023-04-12T16:55:47.326Z,11.60
2023-04-12T16:58:15.982Z,11.70
2023-04-12T17:00:44.725Z,11.38
2023-04-12T17:03:14.108Z,12.85
2023-04-12T17:05:42.480Z,12.30
2023-04-12T17:08:10.779Z,12.32
2023-04-12T17:10:39.225Z,11.85
2023-04-12T17:13:08.216Z,12.32
2023-04-12T17:15:36.598Z,12.35
2023-04-12T17:18:07.402Z,12.43
2023-04-12T17:20:36.230Z,12.32
2023-04-12T17:23:05.335Z,11.48
2023-04-12T17:25:33.672Z,13.07
2023-04-12T17:28:02.906Z,11.98
2023-04-12T17:30:31.464Z,12.68
2023-04-12T17:33:01.732Z,11.32
2023-04-12T17:35:30.335Z,11.95
2023-04-12T17:37:58.665Z,11.38
2023-04-12T17:40:27.143Z,14.70
2023-04-12T17:42:55.523Z,12.43
2023-04-12T17:45:24.120Z,14.55
2023-04-12T17:47:52.377Z,11.52
2023-04-12T17:50:20.579Z,12.65
2023-04-12T17:52:49.144Z,12.25
2023-04-12T17:55:23.018Z,12.50
2023-04-12T17:57:51.532Z,12.00
2023-04-12T18:00:20.738Z,12.13
2023-04-12T18:02:50.190Z,11.70
2023-04-12T18:05:19.217Z,11.70
2023-04-12T18:07:48.060Z,12.45
2023-04-12T18:10:21.124Z,11.80
2023-04-12T18:12:50.200Z,11.80
2023-04-12T18:15:18.992Z,11.90
2023-04-12T18:17:47.434Z,12.73
2023-04-12T18:20:16.546Z,12.50
2023-04-12T18:22:45.895Z,12.35
2023-04-12T18:25:14.439Z,13.35
2023-04-12T18:27:46.283Z,11.95
2023-04-12T18:30:15.321Z,12.07
2023-04-12T18:32:43.892Z,11.68
2023-04-12T18:35:12.151Z,11.85
2023-04-12T18:37:41.060Z,13.43
2023-04-12T18:40:10.523Z,12.43
2023-04-12T18:42:38.786Z,12.95
2023-04-12T18:45:07.702Z,12.98
2023-04-12T18:47:38.950Z,12.27
2023-04-12T18:50:08.619Z,12.85
2023-04-12T18:52:37.663Z,11.82
2023-04-12T18:55:07.051Z,11.95
2023-04-12T18:57:35.430Z,12.73
2023-04-12T19:00:11.641Z,12.63
2023-04-12T19:02:45.046Z,12.93
2023-04-12T19:05:14.889Z,12.77
2023-04-12T19:07:43.283Z,13.23
2023-04-12T19:10:12.744Z,13.23
2023-04-12T19:12:42.433Z,13.35
2023-04-12T19:15:11.721Z,13.13
2023-04-12T19:17:41.821Z,13.15
2023-04-12T19:20:10.920Z,14.27
2023-04-12T19:22:39.609Z,14.48
2023-04-12T19:25:11.417Z,13.88
2023-04-12T19:27:39.828Z,14.57
2023-04-12T19:30:11.054Z,14.25
2023-04-12T19:32:43.237Z,13.95
2023-04-12T19:35:14.080Z,15.00
2023-04-12T19:37:44.784Z,14.18
2023-04-12T19:40:13.666Z,13.43
2023-04-12T19:42:47.420Z,14.13
2023-04-12T19:45:20.590Z,13.40
2023-04-12T19:47:51.224Z,13.75
2023-04-12T19:50:23.125Z,13.55
2023-04-12T19:52:54.034Z,13.25
2023-04-12T19:55:27.938Z,12.32
2023-04-12T19:57:56.843Z,14.15
2023-04-12T20:00:25.446Z,12.32
2023-04-12T20:02:55.408Z,13.43
2023-04-12T20:05:26.607Z,13.95
2023-04-12T20:07:57.388Z,13.98
2023-04-12T20:10:26.468Z,12.88
2023-04-12T20:12:56.784Z,13.77
2023-04-12T20:15:27.941Z,13.57
2023-04-12T20:17:58.063Z,12.98
2023-04-12T20:20:27.021Z,13.20
2023-04-12T20:22:58.933Z,12.88
2023-04-12T20:25:27.367Z,12.63
2023-04-12T20:27:56.928Z,12.27
2023-04-12T20:30:26.464Z,13.27
2023-04-12T20:32:54.990Z,13.82
2023-04-12T20:35:23.477Z,11.98
2023-04-12T20:37:52.831Z,12.93
2023-04-12T20:40:27.003Z,13.05
2023-04-12T20:42:58.220Z,12.55
2023-04-12T20:45:28.648Z,12.57
2023-04-12T20:47:57.613Z,13.57
2023-04-12T20:50:26.603Z,14.18
2023-04-12T20:52:56.330Z,13.75
2023-04-12T20:55:33.999Z,13.07
2023-04-12T20:58:03.982Z,14.55
2023-04-12T21:00:33.878Z,13.55
2023-04-12T21:03:02.812Z,15.23
2023-04-12T21:05:35.769Z,15.10
2023-04-12T21:08:04.119Z,13.88
2023-04-12T21:10:32.362Z,14.07
2023-04-12T21:13:02.778Z,13.25
2023-04-12T21:15:35.320Z,13.18
2023-04-12T21:18:04.471Z,13.63
2023-04-12T21:20:34.382Z,13.77
2023-04-12T21:23:04.297Z,14.23
2023-04-12T21:25:34.467Z,15.20
2023-04-12T21:28:03.421Z,15.55
2023-04-12T21:30:32.341Z,14.30
2023-04-12T21:33:02.320Z,15.95
2023-04-12T21:35:30.734Z,16.35
2023-04-12T21:37:58.983Z,15.77
2023-04-12T21:40:27.473Z,15.52
2023-04-12T21:42:57.169Z,15.77
2023-04-12T21:45:25.973Z,16.58
2023-04-12T21:47:54.335Z,16.75
2023-04-12T21:50:22.672Z,16.00
2023-04-12T21:52:50.913Z,16.13
2023-04-12T21:55:19.132Z,16.30
2023-04-12T21:57:47.638Z,17.10
2023-04-12T22:00:16.068Z,19.38
2023-04-12T22:02:44.955Z,17.75
2023-04-12T22:05:13.431Z,17.55
2023-04-12T22:07:41.795Z,16.10
2023-04-12T22:10:12.233Z,17.42
2023-04-12T22:12:40.822Z,17.92
2023-04-12T22:15:11.713Z,18.42
2023-04-12T22:17:41.111Z,17.58
2023-04-12T22:20:10.939Z,17.27
2023-04-12T22:22:40.273Z,17.98
2023-04-12T22:25:14.837Z,17.38
2023-04-12T22:27:46.509Z,18.38
2023-04-12T22:30:15.932Z,20.58
2023-04-12T22:32:44.395Z,18.48
2023-04-12T22:35:12.698Z,17.23
2023-04-12T22:37:43.680Z,18.92
2023-04-12T22:40:13.793Z,18.08
2023-04-12T22:42:47.433Z,17.92
2023-04-12T22:45:17.329Z,18.67
2023-04-12T22:47:46.284Z,17.75
2023-04-12T22:50:15.154Z,17.90
2023-04-12T22:52:43.481Z,18.95
2023-04-12T22:55:13.918Z,18.08
2023-04-12T22:57:42.224Z,18.67
2023-04-12T23:00:16.812Z,18.58
2023-04-12T23:02:46.669Z,17.67
2023-04-12T23:05:16.255Z,19.88
2023-04-12T23:07:44.639Z,18.55
2023-04-12T23:10:12.922Z,18.40
2023-04-12T23:12:41.163Z,18.90
2023-04-12T23:15:10.049Z,18.83
2023-04-12T23:17:38.340Z,18.48
2023-04-12T23:20:13.382Z,18.55
2023-04-12T23:22:57.962Z,17.58
2023-04-12T23:25:41.881Z,18.45
2023-04-12T23:28:15.452Z,18.35
2023-04-12T23:30:50.532Z,19.15
2023-04-12T23:33:21.495Z,17.45
2023-04-12T23:35:52.953Z,17.77
2023-04-12T23:38:32.672Z,18.15
2023-04-12T23:41:02.561Z,16.90
2023-04-12T23:43:32.573Z,17.33
2023-04-12T23:46:02.246Z,18.73
2023-04-12T23:48:32.193Z,18.42
2023-04-12T23:51:00.760Z,18.10
2023-04-12T23:53:29.030Z,18.33
2023-04-12T23:55:57.302Z,17.90
2023-04-12T23:58:26.216Z,17.60
